sensor_id;sensor_type;location;lat;lon;timestamp;P1;durP1;ratioP1;P2;durP2;ratioP2
47155;SDS011;32908;52.344;16.858;2023-05-10T00:01:34;11.10;;;7.20;;
47155;SDS011;32908;52.344;16.858;2023-05-10T00:04:02;16.30;;;7.60;;
47155;SDS011;32908;52.344;16.858;2023-05-10T00:06:30;12.60;;;7.20;;
47155;SDS011;32908;52.344;16.858;2023-05-10T00:08:58;10.30;;;7.20;;
47155;SDS011;32908;52.344;16.858;2023-05-10T00:11:26;11.40;;;6.70;;
47155;SDS011;32908;52.344;16.858;2023-05-10T00:13:54;11.40;;;6.70;;
47155;SDS011;32908;52.344;16.858;2023-05-10T00:16:22;14.40;;;7.30;;
47155;SDS011;32908;52.344;16.858;2023-05-10T00:18:49;11.20;;;7.20;;
47155;SDS011;32908;52.344;16.858;2023-05-10T00:21:17;10.70;;;6.70;;
47155;SDS011;32908;52.344;16.858;2023-05-10T00:23:45;12.70;;;7.40;;
47155;SDS011;32908;52.344;16.858;2023-05-10T00:26:13;13.30;;;7.10;;
47155;SDS011;32908;52.344;16.858;2023-05-10T00:28:42;11.70;;;7.00;;
47155;SDS011;32908;52.344;16.858;2023-05-10T00:31:10;10.70;;;6.30;;
47155;SDS011;32908;52.344;16.858;2023-05-10T00:33:39;11.20;;;6.30;;
47155;SDS011;32908;52.344;16.858;2023-05-10T00:36:07;11.20;;;6.70;;
47155;SDS011;32908;52.344;16.858;2023-05-10T00:38:35;13.50;;;6.60;;
47155;SDS011;32908;52.344;16.858;2023-05-10T00:41:03;9.90;;;6.40;;
47155;SDS011;32908;52.344;16.858;2023-05-10T00:43:31;10.30;;;6.50;;
47155;SDS011;32908;52.344;16.858;2023-05-10T00:45:59;10.30;;;6.20;;
47155;SDS011;32908;52.344;16.858;2023-05-10T00:48:27;9.00;;;6.80;;
47155;SDS011;32908;52.344;16.858;2023-05-10T00:50:56;10.70;;;6.40;;
47155;SDS011;32908;52.344;16.858;2023-05-10T00:53:24;9.80;;;5.80;;
47155;SDS011;32908;52.344;16.858;2023-05-10T00:55:52;10.80;;;6.00;;
47155;SDS011;32908;52.344;16.858;2023-05-10T00:58:20;10.20;;;6.30;;
47155;SDS011;32908;52.344;16.858;2023-05-10T01:00:50;8.20;;;6.00;;
47155;SDS011;32908;52.344;16.858;2023-05-10T01:03:18;10.60;;;5.50;;
47155;SDS011;32908;52.344;16.858;2023-05-10T01:05:46;8.00;;;5.40;;
47155;SDS011;32908;52.344;16.858;2023-05-10T01:08:14;10.80;;;5.50;;
47155;SDS011;32908;52.344;16.858;2023-05-10T01:10:43;7.20;;;5.70;;
47155;SDS011;32908;52.344;16.858;2023-05-10T01:13:11;7.60;;;5.10;;
47155;SDS011;32908;52.344;16.858;2023-05-10T01:15:40;12.30;;;5.90;;
47155;SDS011;32908;52.344;16.858;2023-05-10T01:18:08;8.50;;;5.80;;
47155;SDS011;32908;52.344;16.858;2023-05-10T01:20:39;9.90;;;5.10;;
47155;SDS011;32908;52.344;16.858;2023-05-10T01:23:19;11.40;;;5.40;;
47155;SDS011;32908;52.344;16.858;2023-05-10T01:26:23;7.50;;;5.50;;
47155;SDS011;32908;52.344;16.858;2023-05-10T01:29:18;7.20;;;4.70;;
47155;SDS011;32908;52.344;16.858;2023-05-10T01:32:07;12.40;;;5.90;;
47155;SDS011;32908;52.344;16.858;2023-05-10T01:34:46;9.20;;;5.50;;
47155;SDS011;32908;52.344;16.858;2023-05-10T01:37:21;9.50;;;5.30;;
47155;SDS011;32908;52.344;16.858;2023-05-10T01:39:54;7.10;;;5.40;;
47155;SDS011;32908;52.344;16.858;2023-05-10T01:42:25;9.80;;;5.00;;
47155;SDS011;32908;52.344;16.858;2023-05-10T01:44:58;8.90;;;5.10;;
47155;SDS011;32908;52.344;16.858;2023-05-10T01:47:30;9.90;;;5.30;;
47155;SDS011;32908;52.344;16.858;2023-05-10T01:50:03;8.50;;;4.80;;
47155;SDS011;32908;52.344;16.858;2023-05-10T01:52:36;9.30;;;5.30;;
47155;SDS011;32908;52.344;16.858;2023-05-10T01:55:06;10.80;;;5.50;;
47155;SDS011;32908;52.344;16.858;2023-05-10T01:57:36;8.20;;;5.20;;
47155;SDS011;32908;52.344;16.858;2023-05-10T02:00:07;8.60;;;5.10;;
47155;SDS011;32908;52.344;16.858;2023-05-10T02:02:38;9.20;;;5.50;;
47155;SDS011;32908;52.344;16.858;2023-05-10T02:05:08;9.10;;;5.60;;
47155;SDS011;32908;52.344;16.858;2023-05-10T02:07:36;7.60;;;5.30;;
47155;SDS011;32908;52.344;16.858;2023-05-10T02:10:05;9.50;;;5.70;;
47155;SDS011;32908;52.344;16.858;2023-05-10T02:12:36;10.30;;;5.90;;
47155;SDS011;32908;52.344;16.858;2023-05-10T02:15:05;8.30;;;5.40;;
47155;SDS011;32908;52.344;16.858;2023-05-10T02:17:35;9.60;;;5.80;;
47155;SDS011;32908;52.344;16.858;2023-05-10T02:20:05;9.40;;;5.30;;
47155;SDS011;32908;52.344;16.858;2023-05-10T02:22:34;11.10;;;6.00;;
47155;SDS011;32908;52.344;16.858;2023-05-10T02:25:03;8.60;;;5.10;;
47155;SDS011;32908;52.344;16.858;2023-05-10T02:27:32;8.30;;;5.40;;
47155;SDS011;32908;52.344;16.858;2023-05-10T02:30:01;6.70;;;5.10;;
47155;SDS011;32908;52.344;16.858;2023-05-10T02:32:30;10.40;;;5.20;;
47155;SDS011;32908;52.344;16.858;2023-05-10T02:34:58;11.80;;;5.60;;
47155;SDS011;32908;52.344;16.858;2023-05-10T02:37:26;8.30;;;5.10;;
47155;SDS011;32908;52.344;16.858;2023-05-10T02:39:55;7.30;;;5.40;;
47155;SDS011;32908;52.344;16.858;2023-05-10T02:42:23;10.50;;;5.80;;
47155;SDS011;32908;52.344;16.858;2023-05-10T02:44:54;11.20;;;6.00;;
47155;SDS011;32908;52.344;16.858;2023-05-10T02:47:23;7.90;;;5.40;;
47155;SDS011;32908;52.344;16.858;2023-05-10T02:49:52;10.60;;;5.70;;
47155;SDS011;32908;52.344;16.858;2023-05-10T02:52:21;9.10;;;6.00;;
47155;SDS011;32908;52.344;16.858;2023-05-10T02:54:52;11.40;;;6.50;;
47155;SDS011;32908;52.344;16.858;2023-05-10T02:57:24;11.60;;;6.60;;
47155;SDS011;32908;52.344;16.858;2023-05-10T02:59:54;12.10;;;7.30;;
47155;SDS011;32908;52.344;16.858;2023-05-10T03:02:22;15.90;;;8.60;;
47155;SDS011;32908;52.344;16.858;2023-05-10T03:04:50;16.70;;;8.10;;
47155;SDS011;32908;52.344;16.858;2023-05-10T03:07:18;12.50;;;6.70;;
47155;SDS011;32908;52.344;16.858;2023-05-10T03:09:47;12.20;;;6.60;;
47155;SDS011;32908;52.344;16.858;2023-05-10T03:12:18;10.40;;;6.70;;
47155;SDS011;32908;52.344;16.858;2023-05-10T03:15:03;13.40;;;6.10;;
47155;SDS011;32908;52.344;16.858;2023-05-10T03:17:35;12.00;;;6.60;;
47155;SDS011;32908;52.344;16.858;2023-05-10T03:20:15;9.60;;;6.40;;
47155;SDS011;32908;52.344;16.858;2023-05-10T03:25:19;15.80;;;6.50;;
47155;SDS011;32908;52.344;16.858;2023-05-10T03:27:48;11.20;;;6.90;;
47155;SDS011;32908;52.344;16.858;2023-05-10T03:30:16;9.30;;;6.70;;
47155;SDS011;32908;52.344;16.858;2023-05-10T03:32:44;12.30;;;6.70;;
47155;SDS011;32908;52.344;16.858;2023-05-10T03:35:12;14.00;;;7.20;;
47155;SDS011;32908;52.344;16.858;2023-05-10T03:37:41;13.00;;;7.10;;
47155;SDS011;32908;52.344;16.858;2023-05-10T03:40:09;11.80;;;7.10;;
47155;SDS011;32908;52.344;16.858;2023-05-10T03:42:37;9.60;;;6.40;;
47155;SDS011;32908;52.344;16.858;2023-05-10T03:45:06;11.00;;;6.90;;
47155;SDS011;32908;52.344;16.858;2023-05-10T03:47:36;10.70;;;6.50;;
47155;SDS011;32908;52.344;16.858;2023-05-10T03:50:04;13.10;;;7.10;;
47155;SDS011;32908;52.344;16.858;2023-05-10T03:52:34;12.10;;;7.10;;
47155;SDS011;32908;52.344;16.858;2023-05-10T03:55:02;9.20;;;6.20;;
47155;SDS011;32908;52.344;16.858;2023-05-10T03:57:30;11.80;;;6.90;;
47155;SDS011;32908;52.344;16.858;2023-05-10T03:59:58;10.50;;;6.70;;
47155;SDS011;32908;52.344;16.858;2023-05-10T04:02:26;8.80;;;6.20;;
47155;SDS011;32908;52.344;16.858;2023-05-10T04:04:56;12.70;;;6.70;;
47155;SDS011;32908;52.344;16.858;2023-05-10T04:07:24;13.30;;;7.00;;
47155;SDS011;32908;52.344;16.858;2023-05-10T04:09:52;11.00;;;6.70;;
47155;SDS011;32908;52.344;16.858;2023-05-10T04:12:19;13.80;;;7.60;;
47155;SDS011;32908;52.344;16.858;2023-05-10T04:14:47;14.10;;;7.70;;
47155;SDS011;32908;52.344;16.858;2023-05-10T04:17:15;13.40;;;8.10;;
47155;SDS011;32908;52.344;16.858;2023-05-10T04:19:43;21.10;;;10.80;;
47155;SDS011;32908;52.344;16.858;2023-05-10T04:22:11;16.10;;;8.30;;
47155;SDS011;32908;52.344;16.858;2023-05-10T04:24:39;13.50;;;7.30;;
47155;SDS011;32908;52.344;16.858;2023-05-10T04:27:07;45.60;;;21.60;;
47155;SDS011;32908;52.344;16.858;2023-05-10T04:29:36;22.70;;;11.40;;
47155;SDS011;32908;52.344;16.858;2023-05-10T04:32:05;17.80;;;8.10;;
47155;SDS011;32908;52.344;16.858;2023-05-10T04:34:33;11.10;;;7.00;;
47155;SDS011;32908;52.344;16.858;2023-05-10T04:37:01;11.10;;;6.70;;
47155;SDS011;32908;52.344;16.858;2023-05-10T04:39:28;13.90;;;6.90;;
47155;SDS011;32908;52.344;16.858;2023-05-10T04:41:57;11.60;;;7.00;;
47155;SDS011;32908;52.344;16.858;2023-05-10T04:44:25;10.70;;;6.80;;
47155;SDS011;32908;52.344;16.858;2023-05-10T04:46:53;10.10;;;6.20;;
47155;SDS011;32908;52.344;16.858;2023-05-10T04:49:21;11.20;;;6.70;;
47155;SDS011;32908;52.344;16.858;2023-05-10T04:51:49;10.90;;;6.40;;
47155;SDS011;32908;52.344;16.858;2023-05-10T04:54:17;12.20;;;5.90;;
47155;SDS011;32908;52.344;16.858;2023-05-10T04:56:45;7.90;;;5.80;;
47155;SDS011;32908;52.344;16.858;2023-05-10T04:59:13;9.30;;;5.90;;
47155;SDS011;32908;52.344;16.858;2023-05-10T05:01:41;15.60;;;7.10;;
47155;SDS011;32908;52.344;16.858;2023-05-10T05:04:08;10.80;;;6.40;;
47155;SDS011;32908;52.344;16.858;2023-05-10T05:06:36;9.10;;;6.20;;
47155;SDS011;32908;52.344;16.858;2023-05-10T05:09:04;12.30;;;7.30;;
47155;SDS011;32908;52.344;16.858;2023-05-10T05:11:32;13.90;;;6.60;;
47155;SDS011;32908;52.344;16.858;2023-05-10T05:14:00;11.10;;;6.00;;
47155;SDS011;32908;52.344;16.858;2023-05-10T05:16:29;11.20;;;6.30;;
47155;SDS011;32908;52.344;16.858;2023-05-10T05:18:58;10.20;;;6.50;;
47155;SDS011;32908;52.344;16.858;2023-05-10T05:21:27;11.40;;;6.30;;
47155;SDS011;32908;52.344;16.858;2023-05-10T05:23:55;12.20;;;5.70;;
47155;SDS011;32908;52.344;16.858;2023-05-10T05:26:23;10.70;;;5.70;;
47155;SDS011;32908;52.344;16.858;2023-05-10T05:28:51;10.50;;;5.80;;
47155;SDS011;32908;52.344;16.858;2023-05-10T05:31:20;12.90;;;7.50;;
47155;SDS011;32908;52.344;16.858;2023-05-10T05:33:48;11.60;;;6.50;;
47155;SDS011;32908;52.344;16.858;2023-05-10T05:36:16;12.80;;;6.40;;
47155;SDS011;32908;52.344;16.858;2023-05-10T05:38:44;14.40;;;7.80;;
47155;SDS011;32908;52.344;16.858;2023-05-10T05:41:12;8.40;;;6.10;;
47155;SDS011;32908;52.344;16.858;2023-05-10T05:43:40;17.20;;;8.20;;
47155;SDS011;32908;52.344;16.858;2023-05-10T05:46:08;12.30;;;6.10;;
47155;SDS011;32908;52.344;16.858;2023-05-10T05:48:36;12.50;;;7.20;;
47155;SDS011;32908;52.344;16.858;2023-05-10T05:51:04;15.20;;;7.30;;
47155;SDS011;32908;52.344;16.858;2023-05-10T05:53:32;14.60;;;6.70;;
47155;SDS011;32908;52.344;16.858;2023-05-10T05:56:00;13.50;;;6.60;;
47155;SDS011;32908;52.344;16.858;2023-05-10T05:58:28;15.00;;;6.80;;
47155;SDS011;32908;52.344;16.858;2023-05-10T06:00:56;9.70;;;6.30;;
47155;SDS011;32908;52.344;16.858;2023-05-10T06:03:24;12.60;;;6.60;;
47155;SDS011;32908;52.344;16.858;2023-05-10T06:05:52;10.80;;;5.80;;
47155;SDS011;32908;52.344;16.858;2023-05-10T06:08:20;13.00;;;5.80;;
47155;SDS011;32908;52.344;16.858;2023-05-10T06:10:48;7.10;;;5.40;;
47155;SDS011;32908;52.344;16.858;2023-05-10T06:13:16;9.40;;;5.30;;
47155;SDS011;32908;52.344;16.858;2023-05-10T06:15:44;8.60;;;5.40;;
47155;SDS011;32908;52.344;16.858;2023-05-10T06:18:12;13.90;;;6.20;;
47155;SDS011;32908;52.344;16.858;2023-05-10T06:20:41;10.20;;;5.40;;
47155;SDS011;32908;52.344;16.858;2023-05-10T06:23:09;8.10;;;5.30;;
47155;SDS011;32908;52.344;16.858;2023-05-10T06:25:37;8.70;;;5.70;;
47155;SDS011;32908;52.344;16.858;2023-05-10T06:28:05;10.20;;;5.40;;
47155;SDS011;32908;52.344;16.858;2023-05-10T06:30:33;10.50;;;5.50;;
47155;SDS011;32908;52.344;16.858;2023-05-10T06:33:02;17.30;;;6.40;;
47155;SDS011;32908;52.344;16.858;2023-05-10T06:35:30;14.40;;;5.40;;
47155;SDS011;32908;52.344;16.858;2023-05-10T06:37:59;10.20;;;5.20;;
47155;SDS011;32908;52.344;16.858;2023-05-10T06:40:27;11.40;;;5.90;;
47155;SDS011;32908;52.344;16.858;2023-05-10T06:42:55;12.10;;;5.60;;
47155;SDS011;32908;52.344;16.858;2023-05-10T06:45:23;9.00;;;4.60;;
47155;SDS011;32908;52.344;16.858;2023-05-10T06:47:51;12.10;;;5.00;;
47155;SDS011;32908;52.344;16.858;2023-05-10T06:50:19;7.40;;;4.80;;
47155;SDS011;32908;52.344;16.858;2023-05-10T06:52:47;9.60;;;5.70;;
47155;SDS011;32908;52.344;16.858;2023-05-10T06:55:15;11.20;;;5.70;;
47155;SDS011;32908;52.344;16.858;2023-05-10T06:57:44;11.00;;;5.40;;
47155;SDS011;32908;52.344;16.858;2023-05-10T07:00:12;10.60;;;4.70;;
47155;SDS011;32908;52.344;16.858;2023-05-10T07:02:41;9.20;;;4.80;;
47155;SDS011;32908;52.344;16.858;2023-05-10T07:05:09;11.70;;;5.20;;
47155;SDS011;32908;52.344;16.858;2023-05-10T07:07:38;8.40;;;4.70;;
47155;SDS011;32908;52.344;16.858;2023-05-10T07:10:06;7.60;;;4.20;;
47155;SDS011;32908;52.344;16.858;2023-05-10T07:12:35;8.00;;;4.10;;
47155;SDS011;32908;52.344;16.858;2023-05-10T07:15:05;8.60;;;3.90;;
47155;SDS011;32908;52.344;16.858;2023-05-10T07:17:34;12.70;;;4.60;;
47155;SDS011;32908;52.344;16.858;2023-05-10T07:20:03;7.70;;;3.80;;
47155;SDS011;32908;52.344;16.858;2023-05-10T07:22:32;6.20;;;3.90;;
47155;SDS011;32908;52.344;16.858;2023-05-10T07:25:00;7.20;;;4.10;;
47155;SDS011;32908;52.344;16.858;2023-05-10T07:27:28;11.40;;;3.80;;
47155;SDS011;32908;52.344;16.858;2023-05-10T07:29:56;7.70;;;3.80;;
47155;SDS011;32908;52.344;16.858;2023-05-10T07:32:25;6.80;;;4.10;;
47155;SDS011;32908;52.344;16.858;2023-05-10T07:34:53;8.30;;;4.30;;
47155;SDS011;32908;52.344;16.858;2023-05-10T07:37:21;6.30;;;3.80;;
47155;SDS011;32908;52.344;16.858;2023-05-10T07:39:49;8.10;;;3.80;;
47155;SDS011;32908;52.344;16.858;2023-05-10T07:42:16;7.80;;;3.30;;
47155;SDS011;32908;52.344;16.858;2023-05-10T07:44:44;7.90;;;3.40;;
47155;SDS011;32908;52.344;16.858;2023-05-10T07:47:13;8.00;;;3.80;;
47155;SDS011;32908;52.344;16.858;2023-05-10T07:49:41;8.80;;;3.70;;
47155;SDS011;32908;52.344;16.858;2023-05-10T07:52:09;6.40;;;3.80;;
47155;SDS011;32908;52.344;16.858;2023-05-10T07:54:38;6.60;;;3.60;;
47155;SDS011;32908;52.344;16.858;2023-05-10T07:57:06;5.80;;;3.20;;
47155;SDS011;32908;52.344;16.858;2023-05-10T07:59:34;7.00;;;3.50;;
47155;SDS011;32908;52.344;16.858;2023-05-10T08:02:02;4.00;;;2.90;;
47155;SDS011;32908;52.344;16.858;2023-05-10T08:04:29;4.70;;;3.10;;
47155;SDS011;32908;52.344;16.858;2023-05-10T08:06:57;4.40;;;3.10;;
47155;SDS011;32908;52.344;16.858;2023-05-10T08:09:25;7.10;;;3.20;;
47155;SDS011;32908;52.344;16.858;2023-05-10T08:11:53;5.00;;;3.20;;
47155;SDS011;32908;52.344;16.858;2023-05-10T08:14:21;3.70;;;2.70;;
47155;SDS011;32908;52.344;16.858;2023-05-10T08:16:49;8.70;;;3.30;;
47155;SDS011;32908;52.344;16.858;2023-05-10T08:19:17;8.20;;;3.60;;
47155;SDS011;32908;52.344;16.858;2023-05-10T08:21:47;8.80;;;3.20;;
47155;SDS011;32908;52.344;16.858;2023-05-10T08:24:15;6.70;;;3.50;;
47155;SDS011;32908;52.344;16.858;2023-05-10T08:26:43;5.30;;;3.00;;
47155;SDS011;32908;52.344;16.858;2023-05-10T08:29:11;5.50;;;3.00;;
47155;SDS011;32908;52.344;16.858;2023-05-10T08:31:39;5.40;;;2.90;;
47155;SDS011;32908;52.344;16.858;2023-05-10T08:34:07;5.20;;;2.80;;
47155;SDS011;32908;52.344;16.858;2023-05-10T08:36:35;3.90;;;2.80;;
47155;SDS011;32908;52.344;16.858;2023-05-10T08:39:03;7.60;;;2.90;;
47155;SDS011;32908;52.344;16.858;2023-05-10T08:41:31;4.10;;;2.60;;
47155;SDS011;32908;52.344;16.858;2023-05-10T08:44:01;3.40;;;2.90;;
47155;SDS011;32908;52.344;16.858;2023-05-10T08:46:31;4.40;;;2.60;;
47155;SDS011;32908;52.344;16.858;2023-05-10T08:49:03;9.10;;;2.70;;
47155;SDS011;32908;52.344;16.858;2023-05-10T08:51:32;4.30;;;2.90;;
47155;SDS011;32908;52.344;16.858;2023-05-10T08:54:04;10.70;;;3.00;;
47155;SDS011;32908;52.344;16.858;2023-05-10T08:56:32;6.90;;;2.90;;
47155;SDS011;32908;52.344;16.858;2023-05-10T08:59:00;5.00;;;2.50;;
47155;SDS011;32908;52.344;16.858;2023-05-10T09:01:29;4.00;;;2.30;;
47155;SDS011;32908;52.344;16.858;2023-05-10T09:03:58;5.80;;;2.40;;
47155;SDS011;32908;52.344;16.858;2023-05-10T09:06:27;4.90;;;2.30;;
47155;SDS011;32908;52.344;16.858;2023-05-10T09:08:55;9.10;;;2.30;;
47155;SDS011;32908;52.344;16.858;2023-05-10T09:11:23;3.40;;;2.10;;
47155;SDS011;32908;52.344;16.858;2023-05-10T09:13:51;5.20;;;2.50;;
47155;SDS011;32908;52.344;16.858;2023-05-10T09:16:19;4.50;;;1.90;;
47155;SDS011;32908;52.344;16.858;2023-05-10T09:18:48;6.00;;;1.90;;
47155;SDS011;32908;52.344;16.858;2023-05-10T09:21:16;5.30;;;1.90;;
47155;SDS011;32908;52.344;16.858;2023-05-10T09:23:44;9.80;;;2.40;;
47155;SDS011;32908;52.344;16.858;2023-05-10T09:26:12;6.20;;;2.40;;
47155;SDS011;32908;52.344;16.858;2023-05-10T09:28:50;4.80;;;2.10;;
47155;SDS011;32908;52.344;16.858;2023-05-10T09:31:19;4.90;;;2.40;;
47155;SDS011;32908;52.344;16.858;2023-05-10T09:33:47;5.30;;;2.10;;
47155;SDS011;32908;52.344;16.858;2023-05-10T09:36:16;9.20;;;1.80;;
47155;SDS011;32908;52.344;16.858;2023-05-10T09:38:48;11.10;;;2.10;;
47155;SDS011;32908;52.344;16.858;2023-05-10T09:41:18;10.30;;;2.40;;
47155;SDS011;32908;52.344;16.858;2023-05-10T09:43:48;4.30;;;2.00;;
47155;SDS011;32908;52.344;16.858;2023-05-10T09:46:16;8.70;;;1.80;;
47155;SDS011;32908;52.344;16.858;2023-05-10T09:48:44;5.30;;;1.80;;
47155;SDS011;32908;52.344;16.858;2023-05-10T09:51:19;5.70;;;2.40;;
47155;SDS011;32908;52.344;16.858;2023-05-10T09:53:47;5.40;;;2.30;;
47155;SDS011;32908;52.344;16.858;2023-05-10T09:59:05;6.30;;;2.00;;
47155;SDS011;32908;52.344;16.858;2023-05-10T10:01:35;8.80;;;2.10;;
47155;SDS011;32908;52.344;16.858;2023-05-10T10:04:04;5.40;;;2.20;;
47155;SDS011;32908;52.344;16.858;2023-05-10T10:06:36;5.20;;;2.00;;
47155;SDS011;32908;52.344;16.858;2023-05-10T10:09:05;7.00;;;2.00;;
47155;SDS011;32908;52.344;16.858;2023-05-10T10:11:34;3.60;;;1.80;;
47155;SDS011;32908;52.344;16.858;2023-05-10T10:14:03;10.10;;;2.30;;
47155;SDS011;32908;52.344;16.858;2023-05-10T10:16:31;9.50;;;2.90;;
47155;SDS011;32908;52.344;16.858;2023-05-10T10:18:59;5.10;;;1.90;;
47155;SDS011;32908;52.344;16.858;2023-05-10T10:21:28;4.70;;;1.70;;
47155;SDS011;32908;52.344;16.858;2023-05-10T10:23:57;5.40;;;1.70;;
47155;SDS011;32908;52.344;16.858;2023-05-10T10:26:25;5.70;;;1.60;;
47155;SDS011;32908;52.344;16.858;2023-05-10T10:28:56;3.30;;;1.80;;
47155;SDS011;32908;52.344;16.858;2023-05-10T10:31:34;2.30;;;1.60;;
47155;SDS011;32908;52.344;16.858;2023-05-10T10:34:06;2.60;;;1.80;;
47155;SDS011;32908;52.344;16.858;2023-05-10T10:36:40;4.20;;;1.80;;
47155;SDS011;32908;52.344;16.858;2023-05-10T10:39:09;6.50;;;2.00;;
47155;SDS011;32908;52.344;16.858;2023-05-10T10:41:38;4.80;;;1.80;;
47155;SDS011;32908;52.344;16.858;2023-05-10T10:44:25;2.90;;;2.10;;
47155;SDS011;32908;52.344;16.858;2023-05-10T10:47:03;5.00;;;1.70;;
47155;SDS011;32908;52.344;16.858;2023-05-10T10:49:38;5.50;;;1.90;;
47155;SDS011;32908;52.344;16.858;2023-05-10T10:52:13;6.40;;;2.30;;
47155;SDS011;32908;52.344;16.858;2023-05-10T10:54:45;3.80;;;1.90;;
47155;SDS011;32908;52.344;16.858;2023-05-10T10:57:17;3.80;;;2.60;;
47155;SDS011;32908;52.344;16.858;2023-05-10T10:59:46;6.10;;;2.00;;
47155;SDS011;32908;52.344;16.858;2023-05-10T11:08:09;7.50;;;2.70;;
47155;SDS011;32908;52.344;16.858;2023-05-10T11:10:39;6.20;;;2.80;;
47155;SDS011;32908;52.344;16.858;2023-05-10T11:13:15;6.20;;;3.10;;
47155;SDS011;32908;52.344;16.858;2023-05-10T11:15:48;4.90;;;2.00;;
47155;SDS011;32908;52.344;16.858;2023-05-10T11:18:19;6.60;;;3.90;;
47155;SDS011;32908;52.344;16.858;2023-05-10T11:20:50;13.70;;;4.60;;
47155;SDS011;32908;52.344;16.858;2023-05-10T11:23:18;3.40;;;2.20;;
47155;SDS011;32908;52.344;16.858;2023-05-10T11:25:47;3.30;;;1.80;;
47155;SDS011;32908;52.344;16.858;2023-05-10T11:28:17;4.50;;;1.90;;
47155;SDS011;32908;52.344;16.858;2023-05-10T11:30:45;9.00;;;2.10;;
47155;SDS011;32908;52.344;16.858;2023-05-10T11:33:17;3.50;;;1.90;;
47155;SDS011;32908;52.344;16.858;2023-05-10T11:35:47;4.50;;;2.40;;
47155;SDS011;32908;52.344;16.858;2023-05-10T11:38:15;2.80;;;2.00;;
47155;SDS011;32908;52.344;16.858;2023-05-10T11:40:43;4.50;;;1.90;;
47155;SDS011;32908;52.344;16.858;2023-05-10T11:43:11;7.60;;;2.30;;
47155;SDS011;32908;52.344;16.858;2023-05-10T11:45:40;7.90;;;2.30;;
47155;SDS011;32908;52.344;16.858;2023-05-10T11:48:09;5.90;;;1.80;;
47155;SDS011;32908;52.344;16.858;2023-05-10T11:50:37;4.10;;;2.10;;
47155;SDS011;32908;52.344;16.858;2023-05-10T11:53:05;6.90;;;2.20;;
47155;SDS011;32908;52.344;16.858;2023-05-10T11:55:33;3.60;;;2.00;;
47155;SDS011;32908;52.344;16.858;2023-05-10T11:58:02;8.40;;;2.00;;
47155;SDS011;32908;52.344;16.858;2023-05-10T12:00:30;2.50;;;1.70;;
47155;SDS011;32908;52.344;16.858;2023-05-10T12:02:59;5.70;;;1.80;;
47155;SDS011;32908;52.344;16.858;2023-05-10T12:05:28;4.70;;;2.30;;
47155;SDS011;32908;52.344;16.858;2023-05-10T12:08:12;4.60;;;2.10;;
47155;SDS011;32908;52.344;16.858;2023-05-10T12:10:41;4.50;;;2.10;;
47155;SDS011;32908;52.344;16.858;2023-05-10T12:13:12;2.20;;;1.90;;
47155;SDS011;32908;52.344;16.858;2023-05-10T12:15:41;2.80;;;1.80;;
47155;SDS011;32908;52.344;16.858;2023-05-10T12:18:10;4.60;;;2.60;;
47155;SDS011;32908;52.344;16.858;2023-05-10T12:20:39;5.30;;;2.30;;
47155;SDS011;32908;52.344;16.858;2023-05-10T12:23:08;6.10;;;2.00;;
47155;SDS011;32908;52.344;16.858;2023-05-10T12:25:37;4.60;;;2.10;;
47155;SDS011;32908;52.344;16.858;2023-05-10T12:28:06;3.30;;;2.00;;
47155;SDS011;32908;52.344;16.858;2023-05-10T12:30:35;4.80;;;2.20;;
47155;SDS011;32908;52.344;16.858;2023-05-10T12:33:07;8.90;;;2.50;;
47155;SDS011;32908;52.344;16.858;2023-05-10T12:35:43;4.30;;;2.10;;
47155;SDS011;32908;52.344;16.858;2023-05-10T12:38:25;10.40;;;2.30;;
47155;SDS011;32908;52.344;16.858;2023-05-10T12:40:56;6.30;;;2.40;;
47155;SDS011;32908;52.344;16.858;2023-05-10T12:43:25;4.70;;;2.10;;
47155;SDS011;32908;52.344;16.858;2023-05-10T12:45:53;3.60;;;2.10;;
47155;SDS011;32908;52.344;16.858;2023-05-10T12:48:21;5.30;;;2.60;;
47155;SDS011;32908;52.344;16.858;2023-05-10T12:50:49;3.20;;;1.70;;
47155;SDS011;32908;52.344;16.858;2023-05-10T12:53:17;5.50;;;1.90;;
47155;SDS011;32908;52.344;16.858;2023-05-10T12:55:46;5.20;;;2.10;;
47155;SDS011;32908;52.344;16.858;2023-05-10T12:58:14;4.20;;;2.10;;
47155;SDS011;32908;52.344;16.858;2023-05-10T13:00:42;6.10;;;2.20;;
47155;SDS011;32908;52.344;16.858;2023-05-10T13:03:10;6.40;;;2.70;;
47155;SDS011;32908;52.344;16.858;2023-05-10T13:05:38;6.20;;;2.30;;
47155;SDS011;32908;52.344;16.858;2023-05-10T13:08:06;6.00;;;2.30;;
47155;SDS011;32908;52.344;16.858;2023-05-10T13:10:34;7.60;;;2.20;;
47155;SDS011;32908;52.344;16.858;2023-05-10T13:13:02;6.70;;;1.90;;
47155;SDS011;32908;52.344;16.858;2023-05-10T13:15:30;9.00;;;2.40;;
47155;SDS011;32908;52.344;16.858;2023-05-10T13:17:58;6.60;;;2.60;;
47155;SDS011;32908;52.344;16.858;2023-05-10T13:20:26;12.80;;;3.70;;
47155;SDS011;32908;52.344;16.858;2023-05-10T13:22:54;6.00;;;2.80;;
47155;SDS011;32908;52.344;16.858;2023-05-10T13:25:22;7.10;;;2.90;;
47155;SDS011;32908;52.344;16.858;2023-05-10T13:27:50;5.80;;;2.90;;
47155;SDS011;32908;52.344;16.858;2023-05-10T13:30:19;3.20;;;2.30;;
47155;SDS011;32908;52.344;16.858;2023-05-10T13:32:47;4.30;;;2.20;;
47155;SDS011;32908;52.344;16.858;2023-05-10T13:35:15;4.20;;;2.30;;
47155;SDS011;32908;52.344;16.858;2023-05-10T13:37:43;6.10;;;2.50;;
47155;SDS011;32908;52.344;16.858;2023-05-10T13:40:11;10.70;;;2.90;;
47155;SDS011;32908;52.344;16.858;2023-05-10T13:42:39;3.90;;;2.20;;
47155;SDS011;32908;52.344;16.858;2023-05-10T13:45:08;7.50;;;2.50;;
47155;SDS011;32908;52.344;16.858;2023-05-10T13:47:38;5.40;;;2.50;;
47155;SDS011;32908;52.344;16.858;2023-05-10T13:50:06;4.40;;;2.60;;
47155;SDS011;32908;52.344;16.858;2023-05-10T13:52:35;5.70;;;2.20;;
47155;SDS011;32908;52.344;16.858;2023-05-10T13:55:04;4.40;;;2.30;;
47155;SDS011;32908;52.344;16.858;2023-05-10T13:57:32;7.00;;;2.60;;
47155;SDS011;32908;52.344;16.858;2023-05-10T14:00:02;4.10;;;2.10;;
47155;SDS011;32908;52.344;16.858;2023-05-10T14:02:31;6.20;;;2.10;;
47155;SDS011;32908;52.344;16.858;2023-05-10T14:04:59;3.90;;;2.20;;
47155;SDS011;32908;52.344;16.858;2023-05-10T14:07:27;4.40;;;2.90;;
47155;SDS011;32908;52.344;16.858;2023-05-10T14:09:55;4.50;;;2.30;;
47155;SDS011;32908;52.344;16.858;2023-05-10T14:12:23;5.80;;;2.40;;
47155;SDS011;32908;52.344;16.858;2023-05-10T14:14:51;3.90;;;2.10;;
47155;SDS011;32908;52.344;16.858;2023-05-10T14:17:19;4.80;;;2.50;;
47155;SDS011;32908;52.344;16.858;2023-05-10T14:19:48;4.70;;;2.70;;
47155;SDS011;32908;52.344;16.858;2023-05-10T14:22:16;5.50;;;2.60;;
47155;SDS011;32908;52.344;16.858;2023-05-10T14:24:44;6.50;;;2.30;;
47155;SDS011;32908;52.344;16.858;2023-05-10T14:27:13;5.10;;;2.50;;
47155;SDS011;32908;52.344;16.858;2023-05-10T14:29:41;4.80;;;2.80;;
47155;SDS011;32908;52.344;16.858;2023-05-10T14:32:09;4.50;;;2.50;;
47155;SDS011;32908;52.344;16.858;2023-05-10T14:34:37;5.20;;;2.40;;
47155;SDS011;32908;52.344;16.858;2023-05-10T14:37:05;4.80;;;2.40;;
47155;SDS011;32908;52.344;16.858;2023-05-10T14:39:33;8.10;;;2.60;;
47155;SDS011;32908;52.344;16.858;2023-05-10T14:42:01;5.50;;;3.00;;
47155;SDS011;32908;52.344;16.858;2023-05-10T14:44:29;7.20;;;2.80;;
47155;SDS011;32908;52.344;16.858;2023-05-10T14:46:57;5.20;;;2.90;;
47155;SDS011;32908;52.344;16.858;2023-05-10T14:49:26;8.30;;;2.60;;
47155;SDS011;32908;52.344;16.858;2023-05-10T14:51:53;7.90;;;3.00;;
47155;SDS011;32908;52.344;16.858;2023-05-10T14:54:21;5.60;;;2.60;;